Time;durP1;ratioP1;P1;durP2;ratioP2;P2;SDS_P1;SDS_P2;PMS_P1;PMS_P2;Temp;Humidity;BMP_temperature;BMP_pressure;BME280_temperature;BME280_humidity;BME280_pressure;Samples;Min_cycle;Max_cycle;Signal;HPM_P1;HPM_P2
2021/03/16 00:01:41;;;;;;;3.27;1.90;;;2.20;85.60;;;;;;5075165;28;20175;-90
2021/03/16 00:04:07;;;;;;;11.07;2.00;;;2.20;85.50;;;;;;5075001;28;20171;-91
2021/03/16 00:06:36;;;;;;;14.90;2.20;;;2.20;85.50;;;;;;5076586;28;20182;-91
2021/03/16 00:09:07;;;;;;;7.97;2.30;;;2.20;85.50;;;;;;5074364;28;20288;-90
2021/03/16 00:11:38;;;;;;;6.57;2.13;;;2.20;85.50;;;;;;5074853;28;20270;-89
2021/03/16 00:14:08;;;;;;;9.30;2.00;;;2.10;85.50;;;;;;5073704;28;20187;-89
2021/03/16 00:16:41;;;;;;;9.90;2.53;;;2.10;85.50;;;;;;5073738;28;20591;-90
2021/03/16 00:19:16;;;;;;;9.23;2.10;;;2.10;85.60;;;;;;5074253;28;20218;-90
2021/03/16 00:21:50;;;;;;;9.87;2.37;;;2.00;85.70;;;;;;5074220;28;20174;-90
2021/03/16 00:24:24;;;;;;;3.63;1.83;;;2.10;85.80;;;;;;5072864;28;20183;-90
2021/03/16 00:27:00;;;;;;;8.77;2.53;;;2.10;85.50;;;;;;5074330;28;20183;-90
2021/03/16 00:29:27;;;;;;;4.63;1.87;;;2.10;85.70;;;;;;5073717;28;20200;-90
2021/03/16 00:31:54;;;;;;;5.50;1.93;;;2.00;85.80;;;;;;5073941;28;20180;-90
2021/03/16 00:34:24;;;;;;;11.77;2.67;;;2.00;85.80;;;;;;5073656;28;20270;-90
2021/03/16 00:36:58;;;;;;;9.70;2.73;;;1.90;86.00;;;;;;5073833;28;20190;-91
2021/03/16 00:39:32;;;;;;;8.57;2.30;;;1.80;86.30;;;;;;5073310;28;20207;-90
2021/03/16 00:42:01;;;;;;;9.30;2.27;;;1.80;86.40;;;;;;5073884;28;20221;-91
2021/03/16 00:44:32;;;;;;;6.77;2.37;;;1.80;86.70;;;;;;5073405;28;20600;-90
2021/03/16 00:47:02;;;;;;;9.77;2.80;;;1.90;86.80;;;;;;5074488;28;20179;-91
2021/03/16 00:49:32;;;;;;;6.23;1.90;;;1.90;86.70;;;;;;5074364;28;20276;-91
2021/03/16 00:52:04;;;;;;;6.50;2.50;;;1.90;86.90;;;;;;5074349;28;20250;-91
2021/03/16 00:54:33;;;;;;;11.40;2.10;;;1.90;86.90;;;;;;5076265;28;20179;-90
2021/03/16 00:57:04;;;;;;;5.93;1.80;;;1.80;86.90;;;;;;5076277;28;20186;-91
2021/03/16 00:59:35;;;;;;;6.10;2.20;;;1.80;86.90;;;;;;5078189;28;20227;-91
2021/03/16 01:02:02;;;;;;;6.23;1.97;;;1.80;87.00;;;;;;5076604;28;20195;-91
2021/03/16 01:04:35;;;;;;;9.53;2.10;;;1.80;87.00;;;;;;5074970;28;20655;-91
2021/03/16 01:07:05;;;;;;;9.87;2.33;;;1.80;87.00;;;;;;5072822;28;20228;-91
2021/03/16 01:09:38;;;;;;;7.07;2.03;;;1.80;87.10;;;;;;5073090;28;20207;-91
2021/03/16 01:12:09;;;;;;;8.53;2.03;;;1.80;87.00;;;;;;5074523;28;20275;-91
2021/03/16 01:14:38;;;;;;;10.87;2.33;;;1.80;87.00;;;;;;5074697;28;20176;-91
2021/03/16 01:17:13;;;;;;;7.00;2.00;;;1.80;87.00;;;;;;5075233;28;20208;-90
2021/03/16 01:19:42;;;;;;;7.27;2.10;;;1.80;87.00;;;;;;5072665;28;20212;-90
2021/03/16 01:22:07;;;;;;;10.20;2.20;;;1.80;87.00;;;;;;5072865;28;20173;-90
2021/03/16 01:24:35;;;;;;;7.70;2.43;;;1.80;87.30;;;;;;5072756;28;20674;-90
2021/03/16 01:27:01;;;;;;;9.93;2.60;;;1.80;87.70;;;;;;5072893;28;20179;-90
2021/03/16 01:29:30;;;;;;;9.17;2.50;;;1.70;87.70;;;;;;5072487;28;20200;-90
2021/03/16 01:32:02;;;;;;;9.87;2.27;;;1.80;87.80;;;;;;5073606;28;20185;-90
2021/03/16 01:34:31;;;;;;;9.73;2.83;;;1.80;87.70;;;;;;5072120;28;20640;-90
2021/03/16 01:37:00;;;;;;;6.83;2.50;;;1.80;88.40;;;;;;5072385;28;20185;-90
2021/03/16 01:39:30;;;;;;;10.90;4.37;;;1.80;88.50;;;;;;5072089;28;20215;-89
2021/03/16 01:42:02;;;;;;;10.90;3.37;;;1.80;88.60;;;;;;5073621;28;20275;-90
2021/03/16 01:44:34;;;;;;;11.77;3.30;;;1.80;88.60;;;;;;5072630;28;20222;-90
2021/03/16 01:47:01;;;;;;;8.30;2.93;;;1.80;88.90;;;;;;5072608;28;20179;-90
2021/03/16 01:49:32;;;;;;;17.03;4.00;;;1.80;89.10;;;;;;5072645;28;20203;-90
2021/03/16 01:52:04;;;;;;;10.53;3.27;;;1.80;89.10;;;;;;5072388;28;20176;-90
2021/03/16 01:54:32;;;;;;;13.33;3.20;;;1.80;89.40;;;;;;5072204;28;20241;-90
2021/03/16 01:57:02;;;;;;;8.13;3.00;;;1.80;89.40;;;;;;5072691;28;20653;-90
2021/03/16 01:59:34;;;;;;;9.77;2.47;;;1.80;89.40;;;;;;5168167;23;20203;-85
2021/03/16 02:02:03;;;;;;;13.20;3.03;;;1.70;89.30;;;;;;5031873;28;20272;-85
2021/03/16 02:04:36;;;;;;;12.97;2.80;;;1.70;89.40;;;;;;5031856;28;20175;-85
2021/03/16 02:07:13;;;;;;;9.87;2.83;;;1.70;89.50;;;;;;5032055;28;20606;-85
2021/03/16 02:09:54;;;;;;;11.63;2.60;;;1.70;89.50;;;;;;5031814;28;20692;-85
2021/03/16 02:12:41;;;;;;;10.30;2.37;;;1.70;89.50;;;;;;5031772;28;20181;-86
2021/03/16 02:15:13;;;;;;;10.33;2.40;;;1.70;89.40;;;;;;5031797;28;20664;-85
2021/03/16 02:17:50;;;;;;;19.07;2.60;;;1.60;89.70;;;;;;5033645;28;20162;-85
2021/03/16 02:20:44;;;;;;;10.47;2.33;;;1.50;89.70;;;;;;5031527;28;20299;-85
2021/03/16 02:23:19;;;;;;;13.67;2.83;;;1.50;89.60;;;;;;5031716;28;20176;-85
2021/03/16 02:26:27;;;;;;;10.70;2.57;;;1.50;89.90;;;;;;5032980;28;20170;-85
2021/03/16 02:29:07;;;;;;;10.20;2.23;;;1.50;90.20;;;;;;5031650;28;20169;-85
2021/03/16 02:31:38;;;;;;;17.17;3.07;;;1.50;90.80;;;;;;5048224;28;20669;-85
2021/03/16 02:34:09;;;;;;;15.67;3.03;;;1.60;91.20;;;;;;5031959;28;20175;-85
2021/03/16 02:36:43;;;;;;;16.80;2.87;;;1.80;91.50;;;;;;5031537;28;20653;-85
2021/03/16 02:39:16;;;;;;;18.57;3.87;;;1.80;91.60;;;;;;5032741;28;20279;-85
2021/03/16 02:41:48;;;;;;;11.70;2.60;;;1.80;91.90;;;;;;5048125;28;20220;-85
2021/03/16 02:44:20;;;;;;;16.00;3.87;;;1.80;92.10;;;;;;5032772;28;20724;-85
2021/03/16 02:46:57;;;;;;;19.27;3.63;;;1.80;91.90;;;;;;5050037;28;20165;-85
2021/03/16 02:49:32;;;;;;;20.27;3.30;;;1.90;92.30;;;;;;5036418;28;20228;-84
2021/03/16 02:52:03;;;;;;;24.60;3.70;;;1.80;92.30;;;;;;5036777;28;20542;-85
2021/03/16 02:54:37;;;;;;;14.87;3.60;;;1.80;92.30;;;;;;5051761;28;20716;-86
2021/03/16 02:57:11;;;;;;;22.63;3.40;;;1.90;92.50;;;;;;5036426;28;20169;-85
2021/03/16 02:59:42;;;;;;;22.77;4.23;;;1.90;92.60;;;;;;5036245;28;20227;-85
2021/03/16 03:02:15;;;;;;;15.73;3.70;;;1.80;92.50;;;;;;5036365;28;20174;-85
2021/03/16 03:04:53;;;;;;;30.20;4.43;;;1.80;92.50;;;;;;5051615;28;20259;-85
2021/03/16 03:07:24;;;;;;;29.97;4.50;;;1.80;92.60;;;;;;5036171;28;20201;-85
2021/03/16 03:09:57;;;;;;;26.60;4.67;;;1.80;92.60;;;;;;5051500;28;20287;-85
2021/03/16 03:12:30;;;;;;;19.53;4.10;;;1.80;92.70;;;;;;5051429;28;20585;-85
2021/03/16 03:14:58;;;;;;;21.27;4.43;;;1.80;92.90;;;;;;5036093;28;20629;-85
2021/03/16 03:17:33;;;;;;;24.93;4.50;;;1.80;92.90;;;;;;5035833;28;20199;-85
2021/03/16 03:20:04;;;;;;;20.60;3.80;;;1.90;93.00;;;;;;5034610;28;20217;-85
2021/03/16 03:23:02;;;;;;;24.23;5.00;;;1.80;92.90;;;;;;5035940;28;20555;-85
2021/03/16 03:25:34;;;;;;;24.50;4.63;;;1.80;93.00;;;;;;5036110;28;20302;-85
2021/03/16 03:28:24;;;;;;;26.53;4.63;;;1.80;93.20;;;;;;5034576;28;20164;-85
2021/03/16 03:30:56;;;;;;;22.00;4.13;;;1.90;93.40;;;;;;5035021;28;20201;-85
2021/03/16 03:33:32;;;;;;;26.63;4.43;;;1.90;93.40;;;;;;5035673;28;20173;-85
2021/03/16 03:36:08;;;;;;;26.80;4.00;;;1.80;93.30;;;;;;5035659;28;20221;-85
2021/03/16 03:38:38;;;;;;;31.23;4.43;;;1.90;93.60;;;;;;5035574;28;20303;-85
2021/03/16 03:41:14;;;;;;;34.33;5.23;;;1.90;93.60;;;;;;5035450;28;20593;-85
2021/03/16 03:43:48;;;;;;;24.83;4.53;;;2.00;93.60;;;;;;5034291;28;20201;-85
2021/03/16 03:46:19;;;;;;;33.77;4.80;;;2.00;93.70;;;;;;5050895;28;20265;-85
2021/03/16 03:48:48;;;;;;;24.87;4.33;;;2.00;93.90;;;;;;5051047;28;20670;-85
2021/03/16 03:51:21;;;;;;;30.83;4.93;;;2.10;94.00;;;;;;5035270;28;20286;-85
2021/03/16 03:53:53;;;;;;;28.63;4.67;;;2.20;94.10;;;;;;5034114;28;20173;-85
2021/03/16 03:56:29;;;;;;;34.77;4.93;;;2.30;94.00;;;;;;5051117;28;20170;-86
2021/03/16 03:59:04;;;;;;;35.63;5.20;;;2.30;94.10;;;;;;5035262;28;20165;-85
2021/03/16 04:01:35;;;;;;;40.07;6.13;;;2.40;94.10;;;;;;5033890;28;20658;-85
2021/03/16 04:04:06;;;;;;;22.77;5.13;;;2.50;94.20;;;;;;5035175;28;20192;-85
2021/03/16 04:06:36;;;;;;;36.27;5.30;;;2.60;94.30;;;;;;5034116;28;20542;-86
2021/03/16 04:09:07;;;;;;;33.80;5.53;;;2.70;94.20;;;;;;5050403;28;20531;-85
2021/03/16 04:11:44;;;;;;;34.17;6.20;;;2.70;94.20;;;;;;5050336;28;20661;-86
2021/03/16 04:14:16;;;;;;;38.53;7.17;;;2.60;94.10;;;;;;5033662;28;20181;-86
2021/03/16 04:16:44;;;;;;;28.33;5.43;;;2.60;94.10;;;;;;5050654;28;20174;-86
2021/03/16 04:19:17;;;;;;;33.73;6.33;;;2.70;94.20;;;;;;5050322;28;20220;-86
2021/03/16 04:21:48;;;;;;;43.27;6.77;;;2.80;94.30;;;;;;5033567;28;20251;-86
2021/03/16 04:24:16;;;;;;;33.60;6.70;;;2.80;94.10;;;;;;5033500;28;20182;-86
2021/03/16 04:26:42;;;;;;;39.83;9.40;;;2.80;94.20;;;;;;5050145;28;20176;-86
2021/03/16 04:29:15;;;;;;;30.73;6.37;;;3.00;94.10;;;;;;5034791;28;20655;-86
2021/03/16 04:31:41;;;;;;;44.80;7.93;;;3.00;94.10;;;;;;5034610;28;20207;-86
2021/03/16 04:34:12;;;;;;;31.53;7.17;;;3.10;93.90;;;;;;5033375;28;20183;-86
2021/03/16 04:36:39;;;;;;;41.63;8.47;;;3.20;93.90;;;;;;5049933;28;20169;-86
2021/03/16 04:39:10;;;;;;;32.93;7.37;;;3.20;93.80;;;;;;5034749;28;20177;-86
2021/03/16 04:41:41;;;;;;;25.60;7.00;;;3.20;93.70;;;;;;5033338;28;20594;-86
2021/03/16 04:44:12;;;;;;;39.33;7.77;;;3.30;93.80;;;;;;5034507;28;20165;-86
2021/03/16 04:46:46;;;;;;;30.77;7.90;;;3.40;93.80;;;;;;5034420;28;20181;-86
2021/03/16 04:49:20;;;;;;;36.13;7.10;;;3.40;93.60;;;;;;5049622;28;20183;-86
2021/03/16 04:51:50;;;;;;;32.00;7.03;;;3.40;93.50;;;;;;5049608;28;20182;-86
2021/03/16 04:54:21;;;;;;;31.50;7.60;;;3.50;93.50;;;;;;5032906;28;20206;-86
2021/03/16 04:56:54;;;;;;;34.97;6.97;;;3.50;93.50;;;;;;5034129;28;20209;-86
2021/03/16 04:59:27;;;;;;;30.30;6.43;;;3.50;93.40;;;;;;5033980;28;20196;-86
2021/03/16 05:02:00;;;;;;;33.27;5.67;;;3.60;93.30;;;;;;5032795;28;20196;-86
2021/03/16 05:04:37;;;;;;;45.53;6.60;;;3.70;93.20;;;;;;5034148;28;20258;-86
2021/03/16 05:07:04;;;;;;;39.23;6.30;;;3.70;93.10;;;;;;5049363;28;20178;-87
2021/03/16 05:09:35;;;;;;;37.47;6.10;;;3.70;93.00;;;;;;5032392;28;20272;-86
2021/03/16 05:12:06;;;;;;;36.33;7.73;;;3.80;93.10;;;;;;5033821;28;20180;-86
2021/03/16 05:14:39;;;;;;;28.30;5.43;;;3.80;92.80;;;;;;5049268;28;20186;-86
2021/03/16 05:17:13;;;;;;;24.97;5.67;;;3.80;92.60;;;;;;5033812;28;20187;-86
2021/03/16 05:19:44;;;;;;;24.10;5.43;;;3.90;92.40;;;;;;5033698;28;20198;-86
2021/03/16 05:22:15;;;;;;;25.67;4.53;;;3.80;92.50;;;;;;5033715;28;20575;-86
2021/03/16 05:24:46;;;;;;;24.83;5.77;;;3.90;92.50;;;;;;5049008;28;20177;-85
2021/03/16 05:27:23;;;;;;;35.20;5.50;;;3.90;91.90;;;;;;5032386;28;20199;-86
2021/03/16 05:29:54;;;;;;;23.50;4.60;;;3.90;91.70;;;;;;5048997;28;20207;-86
2021/03/16 05:32:27;;;;;;;32.23;4.80;;;4.00;91.60;;;;;;5048955;28;20207;-86
2021/03/16 05:35:00;;;;;;;25.87;5.57;;;3.90;91.70;;;;;;5049052;28;20198;-86
2021/03/16 05:37:32;;;;;;;21.70;4.47;;;3.90;91.50;;;;;;5032178;28;20239;-86
2021/03/16 05:40:07;;;;;;;22.80;4.77;;;3.90;91.40;;;;;;5033534;28;20576;-86
2021/03/16 05:42:35;;;;;;;28.90;4.93;;;3.90;91.20;;;;;;5032110;28;20176;-86
2021/03/16 05:45:05;;;;;;;17.77;4.40;;;3.90;91.10;;;;;;5033301;28;20202;-86
2021/03/16 05:47:35;;;;;;;23.40;4.87;;;4.00;90.60;;;;;;5032159;28;20183;-86
2021/03/16 05:50:06;;;;;;;24.90;4.77;;;4.00;90.80;;;;;;5049036;28;20196;-86
2021/03/16 05:52:38;;;;;;;23.23;4.67;;;3.90;90.80;;;;;;5048688;28;20645;-86
2021/03/16 05:55:11;;;;;;;26.50;5.00;;;4.00;90.70;;;;;;5048695;28;20180;-86
2021/03/16 05:57:44;;;;;;;19.83;3.93;;;4.00;90.80;;;;;;5033220;28;20578;-86
2021/03/16 06:00:15;;;;;;;18.10;4.00;;;4.10;90.80;;;;;;5048377;28;20226;-86
2021/03/16 06:02:44;;;;;;;8.60;2.93;;;4.10;90.70;;;;;;5048621;28;20184;-86
2021/03/16 06:05:19;;;;;;;20.97;3.80;;;4.10;89.80;;;;;;5048596;28;20527;-86
2021/03/16 06:07:54;;;;;;;20.07;3.77;;;4.10;89.00;;;;;;5031890;28;20174;-86
2021/03/16 06:10:27;;;;;;;17.47;3.80;;;4.10;89.00;;;;;;5048360;28;20211;-86
2021/03/16 06:12:52;;;;;;;20.37;4.50;;;4.10;89.10;;;;;;5033365;28;20199;-86
2021/03/16 06:15:26;;;;;;;18.83;3.70;;;4.10;89.40;;;;;;5033017;28;20247;-86
2021/03/16 06:17:58;;;;;;;24.13;4.83;;;4.10;89.50;;;;;;5033411;28;20171;-86
2021/03/16 06:20:28;;;;;;;24.97;3.90;;;4.10;89.10;;;;;;5031660;28;20262;-86
2021/03/16 06:23:14;;;;;;;19.60;3.37;;;4.10;88.90;;;;;;5036885;28;20175;-86
2021/03/16 06:25:45;;;;;;;20.37;3.73;;;4.20;88.30;;;;;;5052440;28;20165;-86
2021/03/16 06:28:17;;;;;;;18.40;3.70;;;4.20;88.00;;;;;;5036983;28;20173;-86
2021/03/16 06:30:50;;;;;;;16.77;3.73;;;4.20;87.80;;;;;;5036865;28;20188;-86
2021/03/16 06:33:24;;;;;;;25.97;4.33;;;4.20;88.10;;;;;;5035573;28;20184;-86
2021/03/16 06:36:03;;;;;;;27.20;3.77;;;4.20;88.50;;;;;;5052335;28;20187;-86
2021/03/16 06:38:37;;;;;;;27.30;5.77;;;4.20;88.60;;;;;;5052132;28;20179;-86
2021/03/16 06:41:19;;;;;;;16.70;3.33;;;4.30;89.00;;;;;;5036568;28;20632;-86
2021/03/16 06:44:04;;;;;;;23.53;3.17;;;4.20;89.10;;;;;;5036577;28;20644;-86
2021/03/16 06:46:43;;;;;;;20.27;3.20;;;4.30;89.10;;;;;;5035415;28;20246;-86
2021/03/16 06:49:21;;;;;;;24.63;3.67;;;4.30;88.80;;;;;;5051993;28;20190;-86
2021/03/16 06:51:47;;;;;;;19.03;3.67;;;4.30;88.90;;;;;;5035313;28;20180;-86
2021/03/16 06:54:18;;;;;;;31.63;3.83;;;4.30;88.90;;;;;;5037046;28;20503;-86
2021/03/16 06:56:59;;;;;;;14.80;3.77;;;4.30;88.90;;;;;;5036559;28;20237;-86
2021/03/16 06:59:32;;;;;;;18.50;3.37;;;4.40;88.40;;;;;;5036041;28;20200;-86
2021/03/16 07:02:11;;;;;;;27.50;4.23;;;4.40;88.40;;;;;;5051721;28;20182;-86
2021/03/16 07:04:49;;;;;;;17.77;3.27;;;4.50;88.50;;;;;;5051705;28;20164;-86
2021/03/16 07:07:23;;;;;;;20.80;3.50;;;4.50;88.30;;;;;;5034943;28;20517;-86
2021/03/16 07:10:00;;;;;;;19.87;3.50;;;4.50;88.00;;;;;;5036133;28;20663;-86
2021/03/16 07:12:33;;;;;;;20.20;3.63;;;4.50;88.30;;;;;;5036179;28;20266;-86
2021/03/16 07:15:05;;;;;;;22.87;3.80;;;4.50;88.30;;;;;;5036217;28;20173;-86
2021/03/16 07:17:39;;;;;;;14.23;3.37;;;4.50;87.50;;;;;;5051639;28;20180;-86
2021/03/16 07:20:13;;;;;;;26.83;4.20;;;4.60;87.80;;;;;;5034684;28;20210;-86
2021/03/16 07:22:55;;;;;;;21.67;3.63;;;4.60;87.70;;;;;;5036058;28;20172;-86
2021/03/16 07:25:25;;;;;;;25.97;3.63;;;4.60;87.30;;;;;;5035982;28;20175;-86
2021/03/16 07:27:57;;;;;;;26.40;4.30;;;4.60;87.50;;;;;;5051310;28;20180;-86
2021/03/16 07:30:30;;;;;;;18.47;3.00;;;4.70;87.50;;;;;;5035781;28;20287;-86
2021/03/16 07:33:00;;;;;;;16.50;3.13;;;4.70;87.60;;;;;;5034492;28;20177;-86
2021/03/16 07:35:26;;;;;;;26.30;4.30;;;4.70;87.50;;;;;;5051116;28;20184;-86
2021/03/16 07:38:01;;;;;;;21.97;3.37;;;4.80;87.70;;;;;;5051117;28;20209;-86
2021/03/16 07:40:32;;;;;;;24.43;3.77;;;4.80;87.60;;;;;;5035571;28;20641;-86
2021/03/16 07:43:00;;;;;;;22.57;4.17;;;4.90;87.60;;;;;;5051046;28;20649;-86
2021/03/16 07:45:33;;;;;;;17.53;3.63;;;4.90;86.90;;;;;;5035558;28;20222;-86
2021/03/16 07:48:14;;;;;;;29.50;4.00;;;4.90;87.20;;;;;;5035785;28;20161;-85
2021/03/16 07:50:40;;;;;;;28.17;4.67;;;5.00;86.70;;;;;;5035641;28;20270;-85
2021/03/16 07:53:11;;;;;;;22.37;3.73;;;4.90;86.60;;;;;;5035354;28;20724;-85
2021/03/16 07:55:37;;;;;;;13.43;3.43;;;4.90;87.20;;;;;;5034047;28;20226;-85
2021/03/16 07:58:13;;;;;;;26.40;4.40;;;4.90;86.50;;;;;;5050842;28;20188;-85
2021/03/16 08:00:42;;;;;;;22.30;3.80;;;4.90;86.50;;;;;;5139411;22;20285;-83
2021/03/16 08:03:21;;;;;;;34.70;4.77;;;5.00;86.50;;;;;;5035777;28;20542;-84
2021/03/16 08:05:51;;;;;;;22.77;3.83;;;4.90;86.70;;;;;;5035620;28;20549;-84
2021/03/16 08:08:20;;;;;;;24.83;4.90;;;5.00;86.80;;;;;;5035294;28;20280;-83
2021/03/16 08:10:47;;;;;;;18.73;3.50;;;5.00;86.60;;;;;;5017264;28;20192;-83
2021/03/16 08:13:22;;;;;;;15.67;3.77;;;5.00;86.50;;;;;;5035123;28;20204;-83
2021/03/16 08:15:50;;;;;;;29.27;6.23;;;5.00;86.40;;;;;;5035600;28;20243;-84
2021/03/16 08:18:30;;;;;;;21.03;4.30;;;5.10;86.90;;;;;;5017821;28;20184;-83
2021/03/16 08:21:15;;;;;;;29.87;5.20;;;5.10;87.00;;;;;;5035443;28;20558;-83
2021/03/16 08:23:45;;;;;;;23.27;3.73;;;5.20;86.60;;;;;;5017872;28;20181;-83
2021/03/16 08:26:16;;;;;;;22.10;4.17;;;5.20;86.70;;;;;;5035818;28;20649;-82
2021/03/16 08:28:48;;;;;;;29.40;5.27;;;5.20;86.20;;;;;;5035185;28;20160;-82
2021/03/16 08:31:15;;;;;;;26.50;4.20;;;5.20;86.30;;;;;;5017069;28;20193;-83
2021/03/16 08:33:46;;;;;;;22.97;3.70;;;5.30;86.40;;;;;;5016600;28;20374;-83
2021/03/16 08:36:13;;;;;;;26.20;3.93;;;5.30;86.60;;;;;;5034563;28;20184;-82
2021/03/16 08:38:53;;;;;;;29.73;4.33;;;5.30;86.20;;;;;;5034686;28;20524;-83
2021/03/16 08:41:21;;;;;;;31.63;4.93;;;5.30;86.20;;;;;;5016805;28;20580;-83
2021/03/16 08:43:51;;;;;;;29.10;4.83;;;5.40;86.10;;;;;;5033771;28;20195;-83
2021/03/16 08:46:34;;;;;;;22.73;3.93;;;5.30;86.20;;;;;;5034580;28;20648;-83
2021/03/16 08:49:08;;;;;;;22.73;4.63;;;5.30;86.20;;;;;;5017126;28;20268;-83
2021/03/16 08:51:36;;;;;;;21.03;3.73;;;5.40;86.60;;;;;;5034584;28;20188;-83
2021/03/16 08:54:06;;;;;;;28.77;4.47;;;5.30;86.00;;;;;;5034510;28;20169;-82
2021/03/16 08:56:32;;;;;;;32.77;5.70;;;5.30;86.50;;;;;;5034345;28;20667;-82
2021/03/16 08:59:04;;;;;;;25.53;5.43;;;5.30;86.70;;;;;;5016436;28;20172;-82
2021/03/16 09:01:35;;;;;;;26.33;5.23;;;5.40;86.80;;;;;;5032849;28;20249;-82
2021/03/16 09:04:17;;;;;;;27.30;5.23;;;5.50;86.60;;;;;;5034573;28;20554;-82
2021/03/16 09:06:49;;;;;;;30.67;7.03;;;5.60;86.10;;;;;;5034137;28;20169;-83
2021/03/16 09:09:25;;;;;;;27.70;4.67;;;5.50;85.40;;;;;;5034521;28;20536;-83
2021/03/16 09:11:59;;;;;;;24.43;5.10;;;5.70;86.10;;;;;;5016464;28;20680;-83
2021/03/16 09:14:25;;;;;;;30.87;5.60;;;5.80;85.70;;;;;;5032913;28;20177;-82
2021/03/16 09:16:58;;;;;;;21.37;4.27;;;5.90;84.90;;;;;;5032675;28;20566;-82
2021/03/16 09:19:32;;;;;;;27.43;3.73;;;6.00;83.70;;;;;;5033699;28;20573;-83
2021/03/16 09:22:02;;;;;;;27.50;4.53;;;6.10;83.60;;;;;;5015922;28;20198;-83
2021/03/16 09:24:43;;;;;;;18.67;4.00;;;6.10;83.20;;;;;;5016193;28;20236;-83
2021/03/16 09:27:18;;;;;;;25.90;5.37;;;6.10;83.00;;;;;;5016021;28;20177;-83
2021/03/16 09:29:50;;;;;;;28.83;4.70;;;6.10;83.10;;;;;;5033648;28;20178;-83
2021/03/16 09:32:25;;;;;;;24.80;4.17;;;6.10;82.30;;;;;;5033786;28;20251;-82
2021/03/16 09:35:01;;;;;;;22.53;4.47;;;6.10;82.80;;;;;;5033517;28;20171;-83
2021/03/16 09:37:44;;;;;;;23.93;4.80;;;6.00;81.30;;;;;;5033702;28;20576;-82
2021/03/16 09:40:15;;;;;;;29.03;5.13;;;6.00;82.80;;;;;;5016201;28;20295;-83
2021/03/16 09:42:47;;;;;;;21.37;3.47;;;6.10;82.20;;;;;;5033655;28;20189;-81
2021/03/16 09:45:32;;;;;;;24.67;4.57;;;6.20;81.90;;;;;;5034375;28;20173;-82
2021/03/16 09:48:02;;;;;;;23.10;4.40;;;6.20;82.00;;;;;;5019056;28;20260;-83
2021/03/16 09:50:38;;;;;;;20.27;4.40;;;6.30;82.70;;;;;;5035421;28;20180;-82
2021/03/16 09:53:08;;;;;;;26.70;4.63;;;6.30;82.40;;;;;;5016548;28;20596;-83
2021/03/16 09:55:35;;;;;;;28.73;4.40;;;6.30;81.60;;;;;;5034001;28;20166;-83
2021/03/16 09:58:08;;;;;;;26.97;4.90;;;6.30;81.40;;;;;;5034164;28;20257;-83
2021/03/16 10:00:57;;;;;;;34.30;6.43;;;6.30;81.70;;;;;;5033976;28;20570;-82
2021/03/16 10:03:28;;;;;;;15.10;3.80;;;6.30;81.40;;;;;;5032654;28;20577;-82
2021/03/16 10:06:11;;;;;;;26.30;5.10;;;6.30;81.40;;;;;;5033380;28;20233;-82
2021/03/16 10:08:42;;;;;;;33.10;5.00;;;6.30;81.90;;;;;;5016317;28;20210;-82
2021/03/16 10:11:14;;;;;;;20.40;4.83;;;6.30;82.20;;;;;;5033618;28;20206;-82
2021/03/16 10:13:53;;;;;;;27.30;5.03;;;6.40;82.30;;;;;;5033667;28;20235;-82
2021/03/16 10:16:19;;;;;;;24.70;5.70;;;6.50;82.60;;;;;;5034235;28;20264;-82
2021/03/16 10:18:48;;;;;;;19.93;4.43;;;6.50;81.80;;;;;;5033001;28;20201;-82
2021/03/16 10:21:30;;;;;;;21.57;4.17;;;6.60;81.60;;;;;;5033448;28;20213;-82
2021/03/16 10:24:01;;;;;;;26.07;4.23;;;6.50;81.10;;;;;;5033741;28;20543;-82
2021/03/16 10:26:33;;;;;;;23.03;4.17;;;6.50;81.30;;;;;;5016132;28;20198;-82
2021/03/16 10:29:14;;;;;;;20.53;4.03;;;6.50;80.50;;;;;;5033569;28;20597;-82
2021/03/16 10:31:41;;;;;;;18.63;3.70;;;6.50;79.80;;;;;;5033436;28;20242;-83
2021/03/16 10:34:07;;;;;;;19.13;4.63;;;6.50;80.50;;;;;;5034973;28;20179;-83
2021/03/16 10:36:35;;;;;;;23.10;4.83;;;6.50;79.40;;;;;;5034794;28;20175;-82
2021/03/16 10:39:03;;;;;;;18.67;4.23;;;6.60;79.30;;;;;;5034113;28;20197;-82
2021/03/16 10:41:31;;;;;;;30.30;5.83;;;6.50;79.40;;;;;;5034037;28;20205;-82
2021/03/16 10:44:04;;;;;;;18.30;3.70;;;6.50;79.80;;;;;;5016113;28;20539;-82
2021/03/16 10:46:34;;;;;;;17.90;4.03;;;6.70;79.90;;;;;;5032505;28;20175;-83
2021/03/16 10:49:00;;;;;;;15.40;3.40;;;6.70;78.50;;;;;;5034602;28;20546;-82
2021/03/16 10:51:27;;;;;;;29.93;4.37;;;6.70;78.70;;;;;;5034409;28;20694;-82
2021/03/16 10:53:53;;;;;;;27.03;5.20;;;6.70;79.30;;;;;;5034630;28;20206;-84
2021/03/16 10:56:21;;;;;;;17.00;3.53;;;6.80;79.80;;;;;;5034721;28;20168;-84
2021/03/16 10:58:54;;;;;;;20.20;3.67;;;6.90;79.10;;;;;;5033685;28;20554;-83
2021/03/16 11:01:20;;;;;;;18.33;3.93;;;6.90;77.80;;;;;;5033802;28;20747;-82
2021/03/16 11:03:46;;;;;;;21.57;3.87;;;7.00;77.20;;;;;;5033962;28;20202;-83
2021/03/16 11:06:16;;;;;;;18.63;3.50;;;7.00;77.50;;;;;;5016150;28;20266;-84
2021/03/16 11:08:47;;;;;;;18.67;3.90;;;7.00;76.60;;;;;;5019009;28;20228;-84
2021/03/16 11:11:18;;;;;;;16.67;4.90;;;7.10;77.00;;;;;;5036938;28;20199;-84
2021/03/16 11:13:45;;;;;;;20.63;3.33;;;7.20;77.10;;;;;;5019184;28;20176;-84
2021/03/16 11:16:11;;;;;;;15.87;3.00;;;7.20;77.00;;;;;;5035626;28;20184;-84
2021/03/16 11:18:37;;;;;;;17.00;3.13;;;7.20;75.70;;;;;;5036715;28;20182;-84
2021/03/16 11:21:04;;;;;;;15.20;2.90;;;7.10;76.80;;;;;;5036917;28;20261;-85
2021/03/16 11:23:30;;;;;;;17.20;3.87;;;7.40;76.00;;;;;;5019367;28;20211;-84
2021/03/16 11:25:56;;;;;;;14.30;3.27;;;7.60;74.50;;;;;;5036819;28;20259;-83
2021/03/16 11:28:22;;;;;;;17.90;2.93;;;7.60;74.90;;;;;;5018805;28;20569;-84
2021/03/16 11:30:50;;;;;;;18.87;3.50;;;7.60;73.20;;;;;;5037246;28;20252;-84
2021/03/16 11:33:22;;;;;;;11.10;3.20;;;7.60;73.40;;;;;;5037033;28;20180;-84
2021/03/16 11:35:49;;;;;;;17.97;3.57;;;7.60;74.50;;;;;;5036503;28;20199;-84
2021/03/16 11:38:15;;;;;;;13.17;2.60;;;7.50;74.40;;;;;;5018910;28;20180;-83
2021/03/16 11:40:44;;;;;;;15.43;3.87;;;7.30;72.60;;;;;;5036840;28;20675;-84
2021/03/16 11:43:11;;;;;;;14.37;3.57;;;7.40;72.90;;;;;;5018777;28;20176;-84
2021/03/16 11:45:39;;;;;;;22.53;3.53;;;7.40;73.10;;;;;;5018469;28;20179;-84
2021/03/16 11:48:05;;;;;;;15.47;3.53;;;7.40;72.50;;;;;;5018657;28;20262;-84
2021/03/16 11:50:33;;;;;;;16.30;3.30;;;7.30;72.30;;;;;;5036060;28;20309;-84
2021/03/16 11:53:02;;;;;;;14.10;3.20;;;7.30;72.90;;;;;;5036228;28;20750;-84
2021/03/16 11:55:33;;;;;;;19.93;3.70;;;7.10;72.50;;;;;;5018102;28;20176;-84
2021/03/16 11:58:04;;;;;;;15.80;2.83;;;7.20;72.90;;;;;;5035860;28;20172;-84
2021/03/16 12:00:32;;;;;;;8.40;2.47;;;7.40;73.20;;;;;;5017928;28;20579;-83
2021/03/16 12:03:05;;;;;;;18.10;2.90;;;7.30;72.80;;;;;;5035779;28;20188;-84
2021/03/16 12:05:35;;;;;;;10.80;2.90;;;7.30;71.10;;;;;;5035621;28;20176;-84
2021/03/16 12:08:02;;;;;;;16.27;2.67;;;7.50;72.60;;;;;;5017909;28;20214;-84
2021/03/16 12:10:29;;;;;;;15.67;3.80;;;7.60;70.90;;;;;;5035611;28;20180;-84
2021/03/16 12:12:58;;;;;;;13.73;2.50;;;7.50;70.20;;;;;;5035541;28;20596;-84
2021/03/16 12:15:29;;;;;;;19.30;2.80;;;7.50;68.50;;;;;;5018034;28;20180;-84
2021/03/16 12:18:08;;;;;;;15.40;2.90;;;7.60;70.60;;;;;;5035548;28;20163;-85
2021/03/16 12:20:43;;;;;;;13.93;2.97;;;7.60;70.90;;;;;;5018373;28;20750;-85
2021/03/16 12:23:15;;;;;;;15.57;2.57;;;7.50;71.20;;;;;;5035940;28;20639;-84
2021/03/16 12:25:50;;;;;;;13.07;2.87;;;7.50;71.50;;;;;;5019286;28;20199;-84
2021/03/16 12:28:18;;;;;;;23.33;3.70;;;7.70;72.80;;;;;;5037147;28;20179;-84
2021/03/16 12:30:46;;;;;;;11.47;2.83;;;8.00;72.70;;;;;;5018815;28;20208;-83
2021/03/16 12:33:19;;;;;;;15.73;3.30;;;7.90;71.20;;;;;;5036346;28;20181;-83
2021/03/16 12:35:51;;;;;;;20.70;3.53;;;7.90;72.10;;;;;;5036929;28;20180;-84
2021/03/16 12:38:20;;;;;;;13.70;3.13;;;7.80;71.40;;;;;;5018695;28;20180;-83
2021/03/16 12:40:55;;;;;;;13.13;2.73;;;7.60;72.70;;;;;;5034963;28;20216;-84
2021/03/16 12:43:29;;;;;;;17.40;3.83;;;7.60;70.00;;;;;;5036667;28;20182;-84
2021/03/16 12:45:57;;;;;;;15.17;3.13;;;7.70;72.00;;;;;;5018597;28;20176;-84
2021/03/16 12:48:28;;;;;;;20.57;3.20;;;7.80;71.60;;;;;;5018967;28;20173;-83
2021/03/16 12:50:54;;;;;;;16.53;2.87;;;7.80;70.80;;;;;;5036427;28;20222;-83
2021/03/16 12:53:24;;;;;;;11.30;2.33;;;7.70;70.40;;;;;;5036749;28;20172;-82
2021/03/16 12:55:50;;;;;;;18.93;3.13;;;7.70;70.00;;;;;;5036488;28;20168;-85
2021/03/16 12:58:24;;;;;;;14.83;3.90;;;8.00;70.00;;;;;;5036162;28;20176;-84
2021/03/16 13:00:52;;;;;;;11.43;2.20;;;8.30;68.10;;;;;;5035527;28;20208;-84
2021/03/16 13:03:24;;;;;;;15.20;2.60;;;8.40;66.60;;;;;;5036634;28;20212;-84
2021/03/16 13:05:57;;;;;;;10.60;2.50;;;8.00;67.30;;;;;;5036151;28;20523;-84
2021/03/16 13:08:32;;;;;;;16.27;2.43;;;7.80;67.50;;;;;;5035959;28;20648;-84
2021/03/16 13:10:58;;;;;;;11.77;2.23;;;8.20;67.80;;;;;;5035953;28;20193;-84
2021/03/16 13:13:30;;;;;;;15.50;2.80;;;8.60;67.90;;;;;;5018529;28;20200;-84